Time;durP1;ratioP1;P1;durP2;ratioP2;P2;SDS_P1;SDS_P2;PMS_P1;PMS_P2;Temp;Humidity;BMP_temperature;BMP_pressure;BME280_temperature;BME280_humidity;BME280_pressure;Samples;Min_cycle;Max_cycle;Signal;HPM_P1;HPM_P2
2022/02/19 00:03:56;;;;;;;19.40;4.18;;;;;;;4.74;78.17;100325.47;10423281;28;20069;-76
2022/02/19 00:08:56;;;;;;;13.15;5.30;;;;;;;4.70;78.80;100348.28;10430372;28;20036;-76
2022/02/19 00:13:57;;;;;;;23.27;4.97;;;;;;;4.60;78.30;100359.22;10407149;28;20532;-76
2022/02/19 00:18:57;;;;;;;18.60;3.50;;;;;;;4.71;77.26;100379.47;10404626;28;20037;-75
2022/02/19 00:23:58;;;;;;;20.58;5.10;;;;;;;4.80;78.39;100392.69;10420217;28;20057;-75
2022/02/19 00:28:58;;;;;;;10.95;3.00;;;;;;;4.95;77.35;100387.44;10422422;28;20112;-76
2022/02/19 00:33:58;;;;;;;9.27;4.78;;;;;;;5.06;77.38;100413.88;10420944;28;20042;-76
2022/02/19 00:38:59;;;;;;;4.93;3.67;;;;;;;5.04;75.67;100428.47;10426368;28;20405;-76
2022/02/19 00:44:00;;;;;;;5.07;4.47;;;;;;;5.01;75.29;100443.09;10418989;28;20049;-76
2022/02/19 00:49:02;;;;;;;13.15;3.88;;;;;;;4.95;75.05;100449.16;10403405;28;20476;-76
2022/02/19 00:54:03;;;;;;;5.45;3.40;;;;;;;4.80;75.21;100438.28;10419776;28;20480;-76
2022/02/19 00:59:04;;;;;;;13.98;4.20;;;;;;;4.80;74.48;100466.94;10418215;28;20037;-76
2022/02/19 01:04:04;;;;;;;12.35;5.45;;;;;;;4.86;75.84;100483.19;10420724;28;20060;-75
2022/02/19 01:09:05;;;;;;;15.40;5.15;;;;;;;4.90;75.64;100484.53;10404052;28;20029;-76
2022/02/19 01:14:07;;;;;;;11.23;2.88;;;;;;;4.95;75.38;100524.28;10417401;28;20029;-80
2022/02/19 01:19:07;;;;;;;5.32;2.72;;;;;;;5.07;75.04;100536.34;10417910;28;20108;-78
2022/02/19 01:24:08;;;;;;;11.77;5.32;;;;;;;5.13;74.54;100545.53;10418061;28;20042;-79
2022/02/19 01:29:08;;;;;;;10.50;3.33;;;;;;;5.16;73.44;100555.94;10401310;28;20033;-78
2022/02/19 01:34:08;;;;;;;7.22;2.45;;;;;;;5.19;74.72;100577.06;10417579;28;20484;-77
2022/02/19 01:39:09;;;;;;;15.18;3.83;;;;;;;5.22;74.57;100573.19;10417944;28;20049;-78
2022/02/19 01:44:10;;;;;;;6.70;2.33;;;;;;;5.08;73.50;100593.53;10418275;28;20061;-79
2022/02/19 01:49:11;;;;;;;10.63;2.75;;;;;;;4.99;73.89;100605.28;10414602;28;20044;-79
2022/02/19 01:54:11;;;;;;;9.73;3.88;;;;;;;5.04;75.70;100624.38;10416483;28;20354;-78
2022/02/19 01:59:12;;;;;;;11.27;5.32;;;;;;;5.12;75.43;100637.81;10416466;28;20037;-78
2022/02/19 02:04:12;;;;;;;20.73;4.20;;;;;;;5.11;75.43;100641.50;10415151;28;20045;-78
2022/02/19 02:09:14;;;;;;;12.57;4.35;;;;;;;4.87;76.17;100647.69;10416128;28;20033;-78
2022/02/19 02:14:15;;;;;;;23.73;5.28;;;;;;;4.87;76.88;100664.63;10416718;28;20366;-78
2022/02/19 02:19:15;;;;;;;12.52;4.53;;;;;;;4.83;76.47;100654.41;10431263;28;20060;-78
2022/02/19 02:24:15;;;;;;;26.98;4.53;;;;;;;4.89;76.71;100680.56;10415907;28;20044;-78
2022/02/19 02:29:17;;;;;;;11.00;4.35;;;;;;;4.84;75.28;100686.41;10414707;28;20069;-78
2022/02/19 02:34:21;;;;;;;17.08;4.25;;;;;;;4.91;76.11;100678.53;10422338;28;20461;-79
2022/02/19 02:39:21;;;;;;;16.95;5.45;;;;;;;4.75;75.94;100683.88;10414854;28;20091;-78
2022/02/19 02:44:21;;;;;;;10.73;3.85;;;;;;;4.74;75.22;100693.78;10416525;28;20080;-77
2022/02/19 02:49:22;;;;;;;11.63;4.30;;;;;;;4.80;75.68;100709.22;10414687;28;20147;-78
2022/02/19 02:54:22;;;;;;;22.42;4.88;;;;;;;4.70;75.77;100721.13;10415908;28;20041;-77
2022/02/19 02:59:23;;;;;;;13.60;4.43;;;;;;;4.74;75.34;100731.34;10415040;28;20030;-78
2022/02/19 03:04:23;;;;;;;10.60;3.85;;;;;;;4.76;74.43;100726.66;10423637;28;20128;-78
2022/02/19 03:09:23;;;;;;;14.07;3.10;;;;;;;4.67;74.08;100724.97;10423242;28;20042;-78
2022/02/19 03:14:24;;;;;;;7.72;4.47;;;;;;;4.62;73.59;100738.84;10422983;28;20045;-78
2022/02/19 03:19:24;;;;;;;25.85;6.13;;;;;;;4.62;74.48;100760.28;10423131;28;20425;-77
2022/02/19 03:24:25;;;;;;;10.90;2.88;;;;;;;4.64;73.92;100776.25;10421393;28;20370;-77
2022/02/19 03:29:25;;;;;;;9.43;4.25;;;;;;;4.72;73.57;100775.41;10406232;28;20131;-77
2022/02/19 03:34:25;;;;;;;14.13;5.25;;;;;;;4.86;73.44;100794.41;10422263;28;20033;-78
2022/02/19 03:39:26;;;;;;;12.00;5.55;;;;;;;4.92;72.56;100808.19;10421671;28;20497;-78
2022/02/19 03:44:26;;;;;;;6.93;3.90;;;;;;;4.89;72.15;100818.25;10421299;28;20140;-77
2022/02/19 03:49:27;;;;;;;10.32;3.75;;;;;;;5.00;71.95;100813.56;10420301;28;20037;-79
2022/02/19 03:54:27;;;;;;;25.70;5.57;;;;;;;4.99;71.92;100831.53;10421575;28;20420;-78
2022/02/19 03:59:28;;;;;;;17.50;4.68;;;;;;;5.08;72.06;100833.22;10421395;28;20128;-78
2022/02/19 04:04:28;;;;;;;8.15;3.17;;;;;;;5.07;72.11;100861.09;10422660;28;20124;-78
2022/02/19 04:09:28;;;;;;;23.70;4.07;;;;;;;5.09;71.33;100880.53;10436368;28;20041;-77
2022/02/19 04:14:29;;;;;;;22.95;6.35;;;;;;;5.11;71.96;100896.50;10420199;28;20124;-78
2022/02/19 04:19:29;;;;;;;17.17;5.10;;;;;;;5.07;71.63;100895.13;10419185;28;20082;-78
2022/02/19 04:24:30;;;;;;;14.13;3.72;;;;;;;5.05;71.56;100897.13;10435685;28;20029;-78
2022/02/19 04:29:30;;;;;;;12.43;3.88;;;;;;;4.97;71.64;100902.47;10402372;28;20064;-79
2022/02/19 04:34:31;;;;;;;18.80;4.85;;;;;;;4.89;73.02;100908.63;10420973;28;20087;-77
2022/02/19 04:39:31;;;;;;;10.73;3.17;;;;;;;4.75;74.66;100922.63;10418965;28;20477;-77
2022/02/19 04:44:31;;;;;;;21.00;4.80;;;;;;;4.53;74.15;100926.69;10419676;28;20040;-78
2022/02/19 04:49:32;;;;;;;16.33;3.45;;;;;;;4.54;75.97;100949.84;10428447;28;20044;-78
2022/02/19 04:54:32;;;;;;;19.05;5.43;;;;;;;4.56;75.58;100940.66;10401973;28;20044;-78
2022/02/19 04:59:33;;;;;;;8.75;3.38;;;;;;;4.69;73.88;100959.00;10418304;28;20060;-78
2022/02/19 05:04:33;;;;;;;9.93;3.67;;;;;;;4.75;74.25;100961.03;10418684;28;20034;-77
2022/02/19 05:09:33;;;;;;;20.05;3.55;;;;;;;4.69;74.55;100969.72;10417269;28;20393;-79
2022/02/19 05:14:34;;;;;;;17.15;3.60;;;;;;;4.78;74.02;100966.06;10417728;28;20064;-78
2022/02/19 05:19:34;;;;;;;10.30;3.25;;;;;;;4.65;74.03;100976.38;10416930;28;20045;-79
2022/02/19 05:24:34;;;;;;;12.10;6.60;;;;;;;4.49;74.46;100987.00;10416854;28;20465;-79
2022/02/19 05:29:35;;;;;;;14.02;3.47;;;;;;;4.35;75.14;100983.88;10417670;28;20033;-78
2022/02/19 05:34:35;;;;;;;14.25;4.28;;;;;;;4.38;76.53;100996.97;10417592;28;20480;-78
2022/02/19 05:39:36;;;;;;;10.27;3.80;;;;;;;4.36;76.23;101004.31;10417474;28;20142;-77
2022/02/19 05:44:36;;;;;;;17.45;4.78;;;;;;;4.36;76.24;100998.13;10417137;28;20087;-78
2022/02/19 05:49:36;;;;;;;15.35;4.22;;;;;;;4.30;76.92;101004.09;10418756;28;20385;-78
2022/02/19 05:54:37;;;;;;;10.60;3.03;;;;;;;4.27;77.15;101013.28;10417126;28;20120;-78
2022/02/19 05:59:37;;;;;;;12.45;3.95;;;;;;;4.28;77.47;101024.88;10415939;28;20444;-78
2022/02/19 06:04:38;;;;;;;10.48;4.95;;;;;;;4.35;77.64;101034.81;10417234;28;20432;-78
2022/02/19 06:09:38;;;;;;;9.32;6.18;;;;;;;4.39;76.87;101030.81;10414070;28;20098;-79
2022/02/19 06:14:38;;;;;;;6.32;2.95;;;;;;;4.37;76.02;101030.16;10415797;28;20038;-78
2022/02/19 06:19:39;;;;;;;9.25;4.38;;;;;;;4.34;75.22;101030.47;10416408;28;20603;-79
2022/02/19 06:24:39;;;;;;;17.13;5.15;;;;;;;4.48;75.99;101050.53;10416164;28;20116;-79
2022/02/19 06:29:40;;;;;;;25.55;3.95;;;;;;;4.60;74.99;101070.75;10414829;28;20040;-78
2022/02/19 06:34:40;;;;;;;15.07;3.75;;;;;;;4.58;73.91;101059.31;10415118;28;20477;-78
2022/02/19 06:39:40;;;;;;;14.10;3.47;;;;;;;4.60;74.04;101072.59;10416532;28;20060;-79
2022/02/19 06:44:41;;;;;;;18.05;4.00;;;;;;;4.66;74.63;101080.03;10414171;28;20126;-79
2022/02/19 06:49:41;;;;;;;27.15;4.85;;;;;;;4.55;74.60;101088.28;10416413;28;20428;-79
2022/02/19 06:54:41;;;;;;;20.95;3.28;;;;;;;4.48;74.53;101103.31;10414363;28;20123;-79
2022/02/19 06:59:42;;;;;;;11.40;3.65;;;;;;;4.38;74.72;101114.94;10415120;28;20044;-78
2022/02/19 07:04:43;;;;;;;15.15;4.35;;;;;;;4.38;75.04;101124.84;10415342;28;20353;-78
2022/02/19 07:09:43;;;;;;;9.82;4.07;;;;;;;4.50;74.95;101126.31;10413280;28;20388;-79
2022/02/19 07:14:44;;;;;;;24.63;5.05;;;;;;;4.81;74.80;101140.16;10412910;28;20038;-79
2022/02/19 07:19:44;;;;;;;9.48;4.13;;;;;;;5.15;73.41;101144.81;10414896;28;20123;-79
2022/02/19 07:24:44;;;;;;;14.45;4.13;;;;;;;5.49;70.51;101154.78;10414351;28;20092;-78
2022/02/19 07:29:45;;;;;;;3.90;2.72;;;;;;;5.45;71.01;101148.03;10413884;28;20473;-77
2022/02/19 07:34:46;;;;;;;7.32;3.63;;;;;;;5.28;72.29;101144.41;10415163;28;20085;-79
2022/02/19 07:39:46;;;;;;;7.97;4.07;;;;;;;5.68;70.95;101137.59;10413664;28;20088;-78
2022/02/19 07:44:47;;;;;;;5.18;3.13;;;;;;;6.05;70.69;101154.25;10413390;28;20369;-78
2022/02/19 08:00:26;;;;;;;6.30;3.42;;;;;;;6.90;66.64;101164.06;10419754;28;20041;-78
2022/02/19 08:05:26;;;;;;;7.38;2.45;;;;;;;7.51;66.10;101192.34;10420431;28;20037;-78
2022/02/19 08:10:26;;;;;;;9.35;4.05;;;;;;;7.77;64.40;101181.34;10420219;28;20076;-78
2022/02/19 08:15:27;;;;;;;7.47;3.33;;;;;;;8.12;65.79;101198.91;10420304;28;20047;-78
2022/02/19 08:20:27;;;;;;;13.02;3.92;;;;;;;8.41;61.63;101205.59;10420649;28;20087;-77
2022/02/19 08:25:28;;;;;;;12.27;4.38;;;;;;;8.24;63.64;101217.44;10417890;28;20042;-78
2022/02/19 08:30:28;;;;;;;22.73;4.68;;;;;;;8.64;61.95;101215.59;10434864;28;20034;-78
2022/02/19 08:35:28;;;;;;;14.35;4.00;;;;;;;8.95;60.92;101229.09;10420243;28;20461;-73
2022/02/19 08:40:29;;;;;;;10.52;3.50;;;;;;;9.11;61.75;101225.44;10419461;28;20069;-78
2022/02/19 08:45:29;;;;;;;9.80;3.38;;;;;;;8.84;60.92;101228.47;10417535;28;20529;-78
2022/02/19 08:50:34;;;;;;;18.40;3.13;;;;;;;8.45;63.69;101239.28;10418220;28;20483;-76
2022/02/19 08:55:35;;;;;;;8.52;3.33;;;;;;;9.17;60.43;101232.81;10402033;28;20069;-79
2022/02/19 09:00:35;;;;;;;10.90;3.33;;;;;;;9.45;60.92;101250.16;10418115;28;20110;-77
2022/02/19 09:05:36;;;;;;;8.00;3.28;;;;;;;9.11;60.74;101255.16;10417733;28;20469;-78
2022/02/19 09:10:36;;;;;;;11.82;3.22;;;;;;;9.35;59.95;101259.53;10416616;28;20061;-78
2022/02/19 09:15:38;;;;;;;12.90;5.00;;;;;;;9.26;58.76;101256.06;10417808;28;20033;-77
2022/02/19 09:20:38;;;;;;;2.08;1.95;;;;;;;8.82;60.21;101267.47;10416920;28;20037;-79
2022/02/19 09:25:39;;;;;;;4.97;2.28;;;;;;;10.26;61.84;101274.75;10418481;28;20037;-76
2022/02/19 09:30:39;;;;;;;23.67;3.08;;;;;;;9.78;59.01;101264.22;10418150;28;20068;-78
2022/02/19 09:35:40;;;;;;;11.48;4.55;;;;;;;9.71;59.31;101262.44;10415892;28;20542;-77
2022/02/19 09:40:40;;;;;;;12.57;3.00;;;;;;;9.82;58.42;101269.25;10417362;28;20056;-78
2022/02/19 09:45:41;;;;;;;9.23;3.50;;;;;;;9.09;61.04;101268.81;10416651;28;20033;-78
2022/02/19 09:50:41;;;;;;;7.47;3.17;;;;;;;9.93;59.21;101277.78;10432922;28;20099;-77
2022/02/19 09:55:42;;;;;;;11.68;5.57;;;;;;;10.54;57.52;101274.94;10399451;28;20034;-76
2022/02/19 10:00:45;;;;;;;7.63;3.97;;;;;;;11.09;56.11;101278.09;10416152;28;20400;-77
2022/02/19 10:05:46;;;;;;;8.90;2.33;;;;;;;10.39;56.15;101285.78;10417079;28;20079;-77
2022/02/19 10:10:51;;;;;;;9.88;3.92;;;;;;;9.39;58.54;101291.44;10416044;28;20071;-75
2022/02/19 10:15:51;;;;;;;12.20;3.75;;;;;;;9.29;60.76;101301.66;10418418;28;20034;-78
2022/02/19 10:21:15;;;;;;;10.07;2.72;;;;;;;9.66;61.85;101303.53;10417149;28;20112;-75
2022/02/19 10:26:16;;;;;;;12.32;3.92;;;;;;;9.03;61.66;101312.75;10419808;28;20050;-77
2022/02/19 10:31:17;;;;;;;11.15;3.00;;;;;;;8.49;64.33;101305.41;10416525;28;20037;-76
2022/02/19 10:36:19;;;;;;;9.02;4.38;;;;;;;8.51;63.96;101297.97;10421326;28;20045;-76
2022/02/19 10:41:19;;;;;;;14.18;3.30;;;;;;;9.40;64.19;101309.31;10420815;28;20069;-76
2022/02/19 10:46:25;;;;;;;19.55;4.65;;;;;;;9.90;62.01;101315.19;10437615;28;20048;-76
2022/02/19 10:51:27;;;;;;;8.23;3.20;;;;;;;10.57;58.23;101306.22;10417099;28;20034;-73
2022/02/19 10:56:27;;;;;;;8.95;4.25;;;;;;;10.62;58.84;101304.63;10419351;28;20137;-79
2022/02/19 11:01:28;;;;;;;9.05;2.55;;;;;;;11.18;58.24;101302.19;10423033;28;20030;-80
2022/02/19 11:06:29;;;;;;;8.55;3.33;;;;;;;11.90;54.12;101296.84;10422289;28;20049;-77
2022/02/19 11:11:31;;;;;;;7.43;2.95;;;;;;;12.61;52.67;101294.81;10422151;28;20087;-79
2022/02/19 11:16:32;;;;;;;5.68;2.78;;;;;;;12.73;55.99;101295.94;10416206;28;20469;-78
2022/02/19 11:21:33;;;;;;;5.93;3.65;;;;;;;12.99;50.56;101297.06;10414043;28;20033;-76
2022/02/19 11:26:34;;;;;;;13.13;3.17;;;;;;;12.23;50.01;101284.34;10420230;28;20392;-78
2022/02/19 11:31:35;;;;;;;5.50;2.40;;;;;;;11.86;51.04;101278.22;10421860;28;20044;-78
2022/02/19 11:36:35;;;;;;;12.32;2.58;;;;;;;11.43;53.30;101274.72;10437553;28;20033;-77
2022/02/19 11:41:42;;;;;;;5.78;2.53;;;;;;;11.26;53.02;101259.72;10419778;28;20085;-77
2022/02/19 11:46:42;;;;;;;6.38;2.83;;;;;;;10.78;54.04;101281.06;10405180;28;20052;-77
2022/02/19 11:51:43;;;;;;;9.00;2.65;;;;;;;10.89;54.56;101261.63;10422904;28;20116;-77
2022/02/19 11:56:43;;;;;;;5.97;2.42;;;;;;;11.05;54.13;101253.25;10421545;28;20041;-77
2022/02/19 12:01:45;;;;;;;4.22;2.38;;;;;;;10.48;56.13;101244.03;10420783;28;20025;-78
2022/02/19 12:06:46;;;;;;;7.68;2.83;;;;;;;10.28;56.84;101242.13;10419470;28;20365;-77
2022/02/19 12:11:56;;;;;;;6.90;2.60;;;;;;;10.22;57.43;101249.06;10420803;28;20041;-77
2022/02/19 12:17:07;;;;;;;5.20;2.20;;;;;;;10.27;56.31;101246.66;10420433;28;20021;-78
2022/02/19 12:22:30;;;;;;;16.90;4.05;;;;;;;10.41;56.08;101250.41;10436061;28;20116;-77
2022/02/19 12:27:30;;;;;;;11.32;3.22;;;;;;;10.79;54.87;101236.72;10421034;28;20053;-80
2022/02/19 12:32:34;;;;;;;6.38;2.30;;;;;;;11.10;58.78;101241.84;10420350;28;20026;-78
2022/02/19 12:37:36;;;;;;;12.25;3.40;;;;;;;10.65;55.91;101250.06;10433732;28;20449;-75
2022/02/19 12:42:36;;;;;;;12.50;2.90;;;;;;;10.33;55.26;101236.97;10420053;28;20449;-74
2022/02/19 12:47:37;;;;;;;13.45;4.57;;;;;;;10.15;55.86;101216.50;10417937;28;20070;-74
2022/02/19 12:52:37;;;;;;;6.55;3.30;;;;;;;9.76;57.29;101200.50;10417333;28;20116;-74
2022/02/19 12:57:38;;;;;;;3.17;2.55;;;;;;;9.51;59.52;101203.47;10417697;28;20469;-76
2022/02/19 13:02:39;;;;;;;20.45;3.35;;;;;;;9.42;60.81;101177.53;10416610;28;20069;-78
2022/02/19 13:07:40;;;;;;;15.60;3.70;;;;;;;9.32;62.19;101169.69;10417856;28;20072;-79
2022/02/19 13:12:40;;;;;;;13.40;4.32;;;;;;;9.10;64.34;101178.66;10418974;28;20038;-81
2022/02/19 13:17:41;;;;;;;11.25;4.07;;;;;;;8.88;65.73;101158.75;10415835;28;20393;-78
2022/02/19 13:22:41;;;;;;;47.65;7.20;;;;;;;8.59;66.17;101146.78;10416311;28;20037;-77
2022/02/19 13:27:42;;;;;;;13.40;3.30;;;;;;;8.56;67.75;101120.16;10415099;28;20033;-80
2022/02/19 13:32:43;;;;;;;25.92;3.70;;;;;;;8.51;68.86;101127.94;10415486;28;20047;-78
2022/02/19 13:37:44;;;;;;;8.32;2.83;;;;;;;8.49;68.70;101121.06;10415661;28;20083;-80
2022/02/19 13:42:46;;;;;;;9.32;3.72;;;;;;;8.31;69.02;101115.88;10398876;28;20076;-77
2022/02/19 13:47:47;;;;;;;22.73;4.70;;;;;;;8.26;70.07;101116.41;10430184;28;20029;-79
2022/02/19 13:52:48;;;;;;;21.85;5.68;;;;;;;8.15;70.28;101109.56;10416766;28;20456;-78
2022/02/19 13:57:50;;;;;;;21.48;4.35;;;;;;;8.07;70.56;101106.91;10416398;28;20037;-77
2022/02/19 14:02:58;;;;;;;8.80;3.00;;;;;;;7.98;71.58;101105.28;10414376;28;20029;-78
2022/02/19 14:07:58;;;;;;;9.35;3.28;;;;;;;8.00;71.50;101099.69;10416961;28;20429;-76
2022/02/19 14:13:12;;;;;;;13.73;3.13;;;;;;;7.86;70.54;101082.41;10414570;28;20121;-74
2022/02/19 14:18:13;;;;;;;5.80;2.40;;;;;;;7.86;70.78;101096.72;10417907;28;20402;-78
2022/02/19 14:23:23;;;;;;;24.95;3.53;;;;;;;7.83;70.54;101088.16;10415795;28;20068;-77
2022/02/19 14:28:28;;;;;;;9.75;3.58;;;;;;;7.81;71.81;101061.34;10414117;28;20457;-75
2022/02/19 14:33:29;;;;;;;23.85;3.83;;;;;;;7.89;72.72;101066.72;10415160;28;20029;-76
2022/02/19 14:38:30;;;;;;;6.00;2.50;;;;;;;7.85;71.93;101051.06;10430519;28;20476;-74
2022/02/19 14:43:31;;;;;;;10.05;3.30;;;;;;;7.79;73.21;101041.00;10414814;28;20050;-76
2022/02/19 14:48:31;;;;;;;8.43;2.40;;;;;;;7.63;74.16;101028.44;10413785;28;20456;-73
2022/02/19 14:53:32;;;;;;;12.13;3.92;;;;;;;7.54;75.88;101027.59;10414355;28;20505;-77
2022/02/19 14:58:33;;;;;;;3.88;2.83;;;;;;;7.46;77.17;101041.09;10419525;28;20041;-77
2022/02/19 15:03:33;;;;;;;6.03;2.13;;;;;;;7.29;78.00;101012.53;10422396;28;20373;-76
2022/02/19 15:08:34;;;;;;;11.77;4.50;;;;;;;7.26;79.37;101002.13;10422128;28;20038;-77
2022/02/19 15:13:34;;;;;;;5.28;2.00;;;;;;;7.28;80.10;100967.78;10421852;28;20041;-76
2022/02/19 15:18:35;;;;;;;6.47;3.13;;;;;;;7.12;81.44;100961.44;10371646;28;20064;-72
2022/02/19 15:23:35;;;;;;;12.88;3.70;;;;;;;6.92;82.42;100955.59;10421166;28;20116;-75
2022/02/19 15:28:36;;;;;;;8.88;3.35;;;;;;;7.02;82.98;100951.84;10422073;28;20036;-74
2022/02/19 15:33:36;;;;;;;4.18;2.72;;;;;;;6.92;83.75;100934.06;10422453;28;20382;-75
2022/02/19 15:38:38;;;;;;;5.60;2.65;;;;;;;6.85;84.01;100924.16;10420320;28;20048;-73
2022/02/19 15:43:39;;;;;;;7.15;2.65;;;;;;;6.57;84.63;100911.09;10421504;28;20521;-77
2022/02/19 15:48:39;;;;;;;7.00;2.15;;;;;;;6.34;85.00;100892.13;10362090;28;20591;-76
2022/02/19 15:53:40;;;;;;;4.10;2.63;;;;;;;6.19;86.78;100873.19;10404612;28;20128;-77
2022/02/19 15:58:40;;;;;;;6.45;3.50;;;;;;;5.85;88.65;100845.59;10419442;28;20041;-79
2022/02/19 16:03:42;;;;;;;4.20;2.55;;;;;;;5.57;88.36;100813.69;10421100;28;20060;-79
2022/02/19 16:08:42;;;;;;;12.48;4.25;;;;;;;5.27;91.68;100821.38;10418899;28;20040;-79
2022/02/19 16:13:42;;;;;;;2.17;1.63;;;;;;;5.22;93.44;100774.53;10421983;28;20064;-80
2022/02/19 16:18:43;;;;;;;10.10;3.78;;;;;;;5.02;94.97;100769.47;10419785;28;20040;-79
2022/02/19 16:23:43;;;;;;;10.13;2.95;;;;;;;4.97;96.00;100744.97;10421168;28;20128;-77
2022/02/19 16:28:44;;;;;;;13.60;3.25;;;;;;;4.92;98.04;100749.16;10420511;28;20429;-75
2022/02/19 16:33:44;;;;;;;3.33;1.88;;;;;;;4.80;98.89;100729.84;10419129;28;20034;-76
2022/02/19 16:38:45;;;;;;;3.03;2.72;;;;;;;4.44;99.50;100724.72;10419655;28;20056;-74
2022/02/19 16:43:45;;;;;;;5.85;3.67;;;;;;;4.30;100.00;100680.59;10418868;28;20475;-75
2022/02/19 16:48:46;;;;;;;5.43;2.78;;;;;;;4.03;100.00;100683.50;10434714;28;20184;-76
2022/02/19 16:53:46;;;;;;;8.55;3.75;;;;;;;3.93;100.00;100667.56;10418402;28;20076;-76
2022/02/19 16:58:46;;;;;;;4.70;2.60;;;;;;;3.87;100.00;100647.59;10419783;28;20045;-74
2022/02/19 17:03:47;;;;;;;5.30;2.38;;;;;;;3.86;100.00;100645.06;10418516;28;20025;-76
2022/02/19 17:08:48;;;;;;;6.85;2.60;;;;;;;3.81;100.00;100632.16;10419262;28;20055;-75
2022/02/19 17:13:48;;;;;;;5.70;3.03;;;;;;;3.85;100.00;100609.41;10418991;28;20045;-75
2022/02/19 17:18:49;;;;;;;5.68;3.25;;;;;;;3.82;100.00;100615.06;10418381;28;20040;-76
2022/02/19 17:23:50;;;;;;;3.30;2.80;;;;;;;3.79;100.00;100590.47;10418109;28;20485;-76
2022/02/19 17:28:51;;;;;;;6.95;3.53;;;;;;;3.82;100.00;100585.63;10418516;28;20029;-74
2022/02/19 17:33:55;;;;;;;8.43;2.05;;;;;;;3.93;100.00;100576.47;10416580;28;20091;-76
2022/02/19 17:38:56;;;;;;;5.20;2.92;;;;;;;3.99;100.00;100575.81;10399223;28;20042;-75
2022/02/19 17:43:56;;;;;;;5.82;2.70;;;;;;;3.98;100.00;100574.13;10418891;28;20053;-76
2022/02/19 17:48:56;;;;;;;5.88;2.38;;;;;;;3.97;100.00;100567.94;10416894;28;20484;-75
2022/02/19 17:53:57;;;;;;;12.57;3.15;;;;;;;3.91;100.00;100581.13;10417405;28;20449;-75
2022/02/19 17:58:57;;;;;;;4.72;3.08;;;;;;;3.89;100.00;100565.25;10415509;28;20095;-75
2022/02/19 18:03:58;;;;;;;4.72;2.40;;;;;;;3.84;100.00;100567.56;10416767;28;20038;-75
2022/02/19 18:08:58;;;;;;;3.20;2.75;;;;;;;3.89;100.00;100580.44;10416925;28;20040;-75
2022/02/19 18:13:58;;;;;;;3.85;3.30;;;;;;;3.86;100.00;100556.66;10398767;28;20436;-76
2022/02/19 18:18:59;;;;;;;6.70;2.65;;;;;;;3.89;100.00;100559.88;10416142;28;20124;-75
2022/02/19 18:24:01;;;;;;;3.78;2.85;;;;;;;3.77;100.00;100539.75;10417387;28;20041;-75
2022/02/19 18:29:04;;;;;;;4.75;3.33;;;;;;;3.83;100.00;100501.59;10419422;28;20039;-75
2022/02/19 18:34:04;;;;;;;5.90;2.83;;;;;;;3.85;100.00;100504.94;10417273;28;20453;-75
2022/02/19 18:39:05;;;;;;;3.03;2.70;;;;;;;3.90;100.00;100483.03;10414716;28;20064;-76
2022/02/19 18:44:06;;;;;;;7.75;2.90;;;;;;;3.96;100.00;100464.47;10415807;28;20076;-75
2022/02/19 18:49:07;;;;;;;8.20;2.97;;;;;;;4.03;100.00;100448.56;10414516;28;20041;-75
2022/02/19 18:54:07;;;;;;;3.47;3.20;;;;;;;4.10;100.00;100428.13;10415834;28;20469;-74
2022/02/19 18:59:08;;;;;;;4.68;3.33;;;;;;;4.21;100.00;100418.91;10413895;28;20033;-75
2022/02/19 19:04:08;;;;;;;2.92;2.63;;;;;;;4.30;100.00;100409.84;10413096;28;20097;-75
2022/02/19 19:09:09;;;;;;;3.53;3.22;;;;;;;4.40;100.00;100412.34;10413697;28;20099;-75
2022/02/19 19:14:09;;;;;;;10.25;4.57;;;;;;;4.50;100.00;100401.44;10415252;28;20381;-75
2022/02/19 19:19:10;;;;;;;6.65;3.15;;;;;;;4.58;100.00;100393.41;10415322;28;20053;-75
2022/02/19 19:24:10;;;;;;;3.33;2.95;;;;;;;4.60;100.00;100367.25;10413990;28;20494;-75
2022/02/19 19:29:11;;;;;;;16.80;4.90;;;;;;;4.68;100.00;100342.25;10413544;28;20088;-74
2022/02/19 19:34:14;;;;;;;7.65;3.65;;;;;;;4.84;100.00;100343.03;10413212;28;20033;-76
2022/02/19 19:39:15;;;;;;;5.05;4.05;;;;;;;5.08;100.00;100326.00;10413743;28;20525;-75
2022/02/19 19:44:16;;;;;;;7.95;3.33;;;;;;;5.19;100.00;100340.84;10415485;28;20033;-76
2022/02/19 19:49:16;;;;;;;19.52;4.22;;;;;;;5.39;100.00;100349.28;10421454;28;20041;-76
2022/02/19 19:54:17;;;;;;;15.25;3.75;;;;;;;5.44;100.00;100346.91;10421843;28;20045;-75
2022/02/19 19:59:17;;;;;;;34.20;6.18;;;;;;;5.55;100.00;100354.56;10421464;28;20029;-75
2022/02/19 20:04:17;;;;;;;16.60;4.53;;;;;;;5.66;100.00;100350.63;10421127;28;20048;-75
2022/02/19 20:09:18;;;;;;;15.95;4.22;;;;;;;5.82;100.00;100337.06;10419922;28;20060;-76
2022/02/19 20:14:19;;;;;;;28.35;5.07;;;;;;;5.97;100.00;100339.00;10422324;28;20041;-75
2022/02/19 20:19:20;;;;;;;23.15;5.55;;;;;;;6.12;100.00;100328.28;10421684;28;20032;-75
2022/02/19 20:24:20;;;;;;;25.00;9.02;;;;;;;6.33;100.00;100336.47;10420570;28;20041;-75
2022/02/19 20:29:22;;;;;;;40.83;8.40;;;;;;;6.49;100.00;100352.44;10419088;28;20532;-75
2022/02/19 20:34:22;;;;;;;36.85;6.95;;;;;;;6.55;100.00;100356.25;10418870;28;20220;-74
2022/02/19 20:39:23;;;;;;;16.38;5.63;;;;;;;6.59;100.00;100373.69;10419723;28;20029;-75
2022/02/19 20:44:23;;;;;;;17.35;6.80;;;;;;;6.61;100.00;100384.28;10420584;28;20064;-75
2022/02/19 20:49:24;;;;;;;17.77;5.13;;;;;;;6.56;100.00;100390.19;10419714;28;20108;-74
2022/02/19 20:54:25;;;;;;;9.00;4.28;;;;;;;6.62;100.00;100418.22;10419088;28;20053;-75
2022/02/19 20:59:27;;;;;;;22.08;6.38;;;;;;;6.51;100.00;100414.13;10417355;28;20073;-75
2022/02/19 21:04:28;;;;;;;33.40;5.22;;;;;;;6.47;100.00;100423.56;10417914;28;20061;-76
2022/02/19 21:09:28;;;;;;;21.90;4.53;;;;;;;6.16;100.00;100437.97;10419865;28;20065;-76
2022/02/19 21:14:29;;;;;;;14.90;4.40;;;;;;;5.82;100.00;100474.09;10418309;28;20103;-74
2022/02/19 21:19:29;;;;;;;12.68;4.55;;;;;;;5.85;100.00;100496.25;10418982;28;20068;-75
2022/02/19 21:24:29;;;;;;;22.52;6.53;;;;;;;5.75;100.00;100504.53;10417150;28;20037;-74
2022/02/19 21:29:33;;;;;;;27.95;6.38;;;;;;;5.61;100.00;100516.84;10418033;28;20034;-74
2022/02/19 21:34:33;;;;;;;24.27;6.93;;;;;;;5.49;100.00;100532.53;10418008;28;20062;-74
2022/02/19 21:39:34;;;;;;;23.33;5.88;;;;;;;5.50;100.00;100562.91;10416118;28;20084;-75
2022/02/19 21:44:38;;;;;;;12.85;5.15;;;;;;;5.45;100.00;100594.78;10400910;28;20057;-74
2022/02/19 21:49:40;;;;;;;19.33;5.93;;;;;;;5.37;100.00;100614.47;10416777;28;20104;-74
2022/02/19 21:54:40;;;;;;;9.48;2.85;;;;;;;5.20;100.00;100628.91;10416576;28;20041;-75
2022/02/19 21:59:42;;;;;;;20.15;4.30;;;;;;;5.12;100.00;100637.81;10416142;28;20037;-75
2022/02/19 22:04:43;;;;;;;8.07;4.50;;;;;;;5.04;100.00;100662.81;10415342;28;20042;-77
2022/02/19 22:09:43;;;;;;;27.02;5.15;;;;;;;4.98;100.00;100663.47;10415657;28;20087;-76
2022/02/19 22:14:44;;;;;;;18.70;3.55;;;;;;;5.08;100.00;100679.41;10415275;28;20033;-75
2022/02/19 22:19:44;;;;;;;16.45;4.18;;;;;;;5.16;100.00;100684.78;10416217;28;20076;-76
2022/02/19 22:24:44;;;;;;;12.43;5.22;;;;;;;5.07;100.00;100709.91;10416087;28;20025;-75
2022/02/19 22:29:45;;;;;;;13.82;3.58;;;;;;;5.05;100.00;100720.00;10416497;28;20061;-74
2022/02/19 22:34:46;;;;;;;16.50;4.20;;;;;;;5.17;100.00;100725.88;10414898;28;20381;-74
2022/02/19 22:39:46;;;;;;;8.57;2.95;;;;;;;5.27;100.00;100756.94;10396859;28;20053;-74
2022/02/19 22:44:47;;;;;;;9.70;3.50;;;;;;;5.18;100.00;100782.09;10415922;28;20095;-74
2022/02/19 22:49:48;;;;;;;5.05;2.50;;;;;;;5.13;100.00;100816.63;10397909;28;20030;-74
2022/02/19 22:54:48;;;;;;;10.50;2.40;;;;;;;5.00;100.00;100843.09;10413468;28;20065;-74
2022/02/19 22:59:48;;;;;;;12.07;3.10;;;;;;;4.83;100.00;100843.03;10414454;28;20034;-74
2022/02/19 23:10:08;;;;;;;12.40;2.42;;;;;;;4.66;100.00;100894.94;10414371;28;20045;-75
2022/02/19 23:15:08;;;;;;;3.88;1.65;;;;;;;4.61;100.00;100882.00;10414322;28;20021;-77
2022/02/19 23:20:10;;;;;;;6.20;3.10;;;;;;;4.56;100.00;100912.97;10419524;28;20458;-75